VIP Ground Handling & Aviation Services

 

 
Airport

PAROS (PAS)

Ground Handling Services – PAS/LGPA

VIP Ground Handling

State Ground Handling

Military Ground Handling

Slot & PPR Coordination

Fuel Arrangements

Crew Accommodation Arrangements

Crew Transportation

Customs & Immigration Assistance

Executive Terminal Services

Crew Lounge

Flight Planning, Weather Briefing and NOTAMs

Catering Arrangements

Security Services

Aircraft Maintenance

Airport Customs & Immigration

Concierge Services

VIP Meet & Greet

Helicopter Transfers

Chauffeur Services

Aircraft Charter

Yacht Charter

Hire & Rental

Entertainment & Hospitality

Health & Beauty

Delivery Services

Conference & Meeting rooms

Paros Airport, Paros, 844 00

+30 210 35 33 331 (24/7)

+30 694 6200 300 (24/7)

greece@alphajetservices.com

Paros Airport
Airport Type
•Civil
Operating Hours
•Check NOTAMS / Contact us
Fuel Available
•NO
Fire Category
•4
Approaches
•VOR / DME NDB
Available data for LGPA from the past 2 hours
PAROS
Metar
LGPA 260950Z 33011KT CAVOK 28/21 Q1012

09:50 UTC

Wind: 330° 11kt

Visibility:

Sky:

Temp: 28 deg C / 82.4 deg F

Dewpoint: 21 deg C / 69.8 deg F

Pressure: 1012 hPa